Time;durP1;ratioP1;P1;durP2;ratioP2;P2;SDS_P1;SDS_P2;PMS_P1;PMS_P2;Temp;Humidity;BMP_temperature;BMP_pressure;BME280_temperature;BME280_humidity;BME280_pressure;Samples;Min_cycle;Max_cycle;Signal;HPM_P1;HPM_P2
2021/12/16 00:07:15;;;;;;;13.93;8.57;;;2.40;66.20;;;;;;5034077;28;20026;-26
2021/12/16 00:09:10;;;;;;;13.95;8.57;;;2.40;66.10;;;;;;5030157;28;20033;-26
2021/12/16 00:33:33;;;;;;;7.70;4.35;;;2.40;66.50;;;;;;5034090;28;20034;-26
2021/12/16 00:36:02;;;;;;;8.00;5.10;;;2.40;66.70;;;;;;5033746;28;20516;-26
2021/12/16 00:38:28;;;;;;;11.35;6.38;;;2.40;66.30;;;;;;5033520;28;20025;-26
2021/12/16 00:40:56;;;;;;;8.65;5.00;;;2.40;66.20;;;;;;5034006;28;20420;-26
2021/12/16 00:56:17;;;;;;;10.02;5.63;;;2.30;66.90;;;;;;5033524;28;20117;-26
2021/12/16 00:58:51;;;;;;;9.20;5.05;;;2.30;66.50;;;;;;5033513;28;20112;-27
2021/12/16 01:58:09;;;;;;;19.98;12.82;;;2.00;67.40;;;;;;5010820;28;20068;-26
2021/12/16 02:00:57;;;;;;;15.02;9.63;;;2.00;68.90;;;;;;5010941;28;20034;-26
2021/12/16 02:03:37;;;;;;;9.70;5.60;;;2.00;69.10;;;;;;5010935;28;20038;-25
2021/12/16 02:08:41;;;;;;;12.38;6.90;;;1.90;68.60;;;;;;5014924;28;20030;-25
2021/12/16 02:27:43;;;;;;;;;;;1.90;67.80;;;;;;5015100;28;20552;-25
2021/12/16 02:35:41;;;;;;;14.82;8.82;;;2.00;68.50;;;;;;5036015;28;20025;-26
2021/12/16 02:38:11;;;;;;;12.50;7.13;;;2.00;68.50;;;;;;5035917;28;20386;-26
2021/12/16 02:40:38;;;;;;;10.15;6.43;;;2.00;70.40;;;;;;5035899;28;20030;-26
2021/12/16 02:43:24;;;;;;;11.05;6.70;;;1.90;69.00;;;;;;5035921;28;20036;-26
2021/12/16 02:48:38;;;;;;;9.60;5.00;;;2.00;68.40;;;;;;5035799;28;20564;-26
2021/12/16 02:51:15;;;;;;;12.07;7.45;;;2.00;68.10;;;;;;5035953;28;20022;-25
2021/12/16 02:53:52;;;;;;;15.10;8.20;;;2.00;68.00;;;;;;5035634;28;20045;-25
2021/12/16 02:56:18;;;;;;;11.45;6.65;;;1.90;68.20;;;;;;5035702;28;20079;-25
2021/12/16 02:58:48;;;;;;;8.18;4.93;;;1.90;68.20;;;;;;5035656;28;20056;-27
2021/12/16 03:01:31;;;;;;;15.27;9.95;;;1.90;68.30;;;;;;5035488;28;20044;-25
2021/12/16 03:04:00;;;;;;;9.40;5.28;;;1.90;68.40;;;;;;5034154;28;20045;-26
2021/12/16 03:06:29;;;;;;;8.15;4.28;;;1.90;68.60;;;;;;5035455;28;20029;-26
2021/12/16 03:08:57;;;;;;;8.52;5.20;;;1.90;68.70;;;;;;5035210;28;20057;-26
2021/12/16 03:14:20;;;;;;;10.60;6.38;;;1.90;68.40;;;;;;5035663;28;20485;-26
2021/12/16 03:20:07;;;;;;;6.22;3.75;;;1.80;69.90;;;;;;5013249;28;20156;-25
2021/12/16 03:25:20;;;;;;;6.75;4.10;;;1.80;69.50;;;;;;5013289;28;20105;-25
2021/12/16 03:36:14;;;;;;;;;;;1.60;69.30;;;;;;5013303;28;20501;-25
2021/12/16 03:38:43;;;;;;;8.45;4.55;;;1.60;70.00;;;;;;5012857;28;20353;-26
2021/12/16 03:41:09;;;;;;;3.60;2.25;;;1.60;69.30;;;;;;5012987;28;20041;-25
2021/12/16 03:43:37;;;;;;;4.78;2.90;;;1.60;69.10;;;;;;5012653;28;20030;-25
2021/12/16 03:46:27;;;;;;;6.15;3.70;;;1.60;68.90;;;;;;5013082;28;20429;-25
2021/12/16 03:48:58;;;;;;;7.38;4.40;;;1.50;68.80;;;;;;5012789;28;20125;-25
2021/12/16 03:51:33;;;;;;;8.50;4.18;;;1.50;68.90;;;;;;5013090;28;20474;-26
2021/12/16 03:54:12;;;;;;;7.85;4.60;;;1.50;68.90;;;;;;5025381;28;20042;-25
2021/12/16 03:56:39;;;;;;;10.32;4.85;;;1.40;68.90;;;;;;5034362;28;20026;-25
2021/12/16 03:59:07;;;;;;;8.02;4.93;;;1.40;69.20;;;;;;5034294;28;20112;-25
2021/12/16 04:01:34;;;;;;;9.45;5.70;;;1.40;69.00;;;;;;5033080;28;20440;-25
2021/12/16 04:04:01;;;;;;;9.05;4.38;;;1.30;70.20;;;;;;5034833;28;20041;-25
2021/12/16 04:06:30;;;;;;;6.63;3.72;;;1.30;70.00;;;;;;5033985;28;20436;-26
2021/12/16 04:08:57;;;;;;;9.00;4.63;;;1.30;69.70;;;;;;5034116;28;20386;-25
2021/12/16 04:11:31;;;;;;;8.45;4.63;;;1.20;69.70;;;;;;5034079;28;20163;-25
2021/12/16 04:13:59;;;;;;;5.82;3.10;;;1.20;69.60;;;;;;5034352;28;20033;-25
2021/12/16 04:16:36;;;;;;;13.65;7.68;;;1.20;69.50;;;;;;5033830;28;20508;-25
2021/12/16 04:19:13;;;;;;;11.10;6.05;;;1.20;69.70;;;;;;5034281;28;20031;-25
2021/12/16 04:21:44;;;;;;;10.32;5.25;;;1.20;69.90;;;;;;5033955;28;20408;-25
2021/12/16 04:24:10;;;;;;;9.50;5.28;;;1.10;69.70;;;;;;5034192;28;20036;-25
2021/12/16 04:26:39;;;;;;;6.47;3.40;;;1.10;70.20;;;;;;5033956;28;20096;-25
2021/12/16 04:29:07;;;;;;;13.65;6.78;;;1.10;70.10;;;;;;5033650;28;20025;-25
2021/12/16 04:31:35;;;;;;;10.32;5.35;;;1.10;69.90;;;;;;5033739;28;20108;-25
2021/12/16 04:34:06;;;;;;;9.07;5.45;;;1.10;70.10;;;;;;5033699;28;20024;-26
2021/12/16 04:36:34;;;;;;;4.40;2.88;;;1.00;70.10;;;;;;5033263;28;20520;-26
2021/12/16 04:39:01;;;;;;;9.15;4.65;;;1.10;69.80;;;;;;5033608;28;20132;-25
2021/12/16 04:41:27;;;;;;;12.18;6.28;;;1.00;69.70;;;;;;5032413;28;20108;-25
2021/12/16 04:43:55;;;;;;;4.78;3.80;;;1.00;69.80;;;;;;5033688;28;20037;-26
2021/12/16 04:46:29;;;;;;;8.40;4.35;;;1.00;69.60;;;;;;5033310;28;20474;-25
2021/12/16 04:48:59;;;;;;;6.18;3.47;;;1.00;69.50;;;;;;5033523;28;20392;-26
2021/12/16 04:51:28;;;;;;;4.70;2.85;;;1.00;69.60;;;;;;5032225;28;20462;-26
2021/12/16 04:53:54;;;;;;;8.70;5.45;;;0.90;69.40;;;;;;5032190;28;20033;-26
2021/12/16 04:56:22;;;;;;;5.30;3.20;;;0.90;69.40;;;;;;5033703;28;20497;-26
2021/12/16 04:58:50;;;;;;;7.25;3.97;;;0.90;69.60;;;;;;5033432;28;20124;-25
2021/12/16 05:01:16;;;;;;;9.25;4.80;;;0.90;69.70;;;;;;5033646;28;20064;-25
2021/12/16 05:03:43;;;;;;;8.05;4.47;;;0.90;69.80;;;;;;5031915;28;20030;-24
2021/12/16 05:06:10;;;;;;;5.05;2.90;;;0.90;69.80;;;;;;5033203;28;20156;-25
2021/12/16 05:08:38;;;;;;;8.18;4.13;;;0.90;69.70;;;;;;5033072;28;20036;-25
2021/12/16 05:11:09;;;;;;;8.63;4.45;;;0.80;69.60;;;;;;5033466;28;20054;-25
2021/12/16 05:13:35;;;;;;;5.90;3.63;;;0.80;69.70;;;;;;5033379;28;20398;-25
2021/12/16 05:16:04;;;;;;;10.23;5.65;;;0.80;69.80;;;;;;5033065;28;20385;-26
2021/12/16 05:18:34;;;;;;;8.25;4.88;;;0.80;69.70;;;;;;5032844;28;20076;-24
2021/12/16 05:21:06;;;;;;;7.55;4.68;;;0.80;70.80;;;;;;5033040;28;20021;-25
2021/12/16 05:26:18;;;;;;;10.20;5.20;;;0.80;69.50;;;;;;5033200;28;20385;-26
2021/12/16 05:28:53;;;;;;;8.73;5.03;;;0.80;69.50;;;;;;5032889;28;20025;-25
2021/12/16 05:31:25;;;;;;;7.88;4.38;;;0.80;69.60;;;;;;5033028;28;20032;-25
2021/12/16 05:33:53;;;;;;;7.57;4.07;;;0.80;69.70;;;;;;5032940;28;20120;-24
2021/12/16 05:36:19;;;;;;;4.85;3.28;;;0.80;69.70;;;;;;5032489;28;20050;-24
2021/12/16 05:38:45;;;;;;;7.40;4.30;;;0.80;69.70;;;;;;5031646;28;20036;-25
2021/12/16 05:41:14;;;;;;;4.38;2.85;;;0.80;69.40;;;;;;5036807;28;20524;-25
2021/12/16 05:43:41;;;;;;;19.65;11.13;;;0.80;69.30;;;;;;5036902;28;20112;-27
2021/12/16 05:46:09;;;;;;;8.15;3.90;;;0.70;71.00;;;;;;5036815;28;20075;-25
2021/12/16 05:48:39;;;;;;;9.35;4.88;;;0.70;70.30;;;;;;5036891;28;20036;-25
2021/12/16 05:51:13;;;;;;;4.90;3.03;;;0.70;70.10;;;;;;5036699;28;20037;-25
2021/12/16 05:53:41;;;;;;;7.25;4.13;;;0.70;69.80;;;;;;5035577;28;20030;-25
2021/12/16 05:56:08;;;;;;;8.75;5.05;;;0.60;69.90;;;;;;5035450;28;20026;-25
2021/12/16 05:58:36;;;;;;;6.45;4.00;;;0.60;70.30;;;;;;5036312;28;20030;-25
2021/12/16 06:01:10;;;;;;;6.68;3.40;;;0.60;70.00;;;;;;5036890;28;20037;-25
2021/12/16 06:03:37;;;;;;;7.80;3.95;;;0.60;69.90;;;;;;5037192;28;20037;-25
2021/12/16 06:06:04;;;;;;;9.13;4.40;;;0.60;69.90;;;;;;5036497;28;20084;-24
2021/12/16 06:08:31;;;;;;;6.55;4.10;;;0.60;69.80;;;;;;5036315;28;20504;-25
2021/12/16 06:13:29;;;;;;;6.15;3.47;;;0.50;70.00;;;;;;5036648;28;20557;-25
2021/12/16 06:22:20;;;;;;;8.20;4.75;;;0.50;70.00;;;;;;5036404;28;20029;-24
2021/12/16 06:29:21;;;;;;;5.53;3.53;;;0.50;70.50;;;;;;5036366;28;20481;-24
2021/12/16 06:31:47;;;;;;;4.13;2.50;;;0.50;70.20;;;;;;5036339;28;20026;-24
2021/12/16 06:34:13;;;;;;;6.07;4.00;;;0.50;70.20;;;;;;5036268;28;20091;-24
2021/12/16 06:36:38;;;;;;;5.10;3.13;;;0.50;70.20;;;;;;5035637;28;20053;-24
2021/12/16 06:39:05;;;;;;;7.68;4.97;;;0.50;70.00;;;;;;5036221;28;20032;-24
2021/12/16 06:41:35;;;;;;;11.05;6.05;;;0.50;70.10;;;;;;5036465;28;20044;-25
2021/12/16 06:44:06;;;;;;;14.88;8.18;;;0.50;70.00;;;;;;5036197;28;20541;-24
2021/12/16 06:46:36;;;;;;;17.25;10.15;;;0.50;69.80;;;;;;5035567;28;20022;-25
2021/12/16 06:49:03;;;;;;;12.20;6.60;;;0.60;70.50;;;;;;5035683;28;20037;-25
2021/12/16 06:51:44;;;;;;;14.60;8.70;;;0.60;70.30;;;;;;5034343;28;20367;-24
2021/12/16 06:54:20;;;;;;;13.65;7.47;;;0.60;70.50;;;;;;5035672;28;20034;-24
2021/12/16 06:57:17;;;;;;;9.73;5.43;;;0.60;71.50;;;;;;5035613;28;20115;-25
2021/12/16 07:05:05;;;;;;;14.55;6.63;;;0.70;71.00;;;;;;5035391;28;20064;-25
2021/12/16 07:07:31;;;;;;;18.50;10.10;;;0.80;70.80;;;;;;5035635;28;20029;-26
2021/12/16 07:09:57;;;;;;;7.72;5.03;;;0.80;71.20;;;;;;5035253;28;20041;-25
2021/12/16 07:12:34;;;;;;;16.15;7.47;;;0.80;71.20;;;;;;5035039;28;20037;-25
2021/12/16 07:15:08;;;;;;;12.10;7.80;;;0.80;71.40;;;;;;5035186;28;20159;-25
2021/12/16 07:17:37;;;;;;;20.13;11.75;;;0.90;71.00;;;;;;5035207;28;20505;-25
2021/12/16 07:20:05;;;;;;;17.25;8.77;;;0.90;71.80;;;;;;5035391;28;20033;-25
2021/12/16 07:22:33;;;;;;;11.57;6.25;;;1.00;72.30;;;;;;5049676;28;20030;-25
2021/12/16 07:25:02;;;;;;;8.57;4.43;;;1.10;71.60;;;;;;5035037;28;20072;-25
2021/12/16 07:27:31;;;;;;;6.75;4.13;;;1.20;71.60;;;;;;5034987;28;20057;-24
2021/12/16 07:29:57;;;;;;;6.20;3.50;;;1.30;71.30;;;;;;5034815;28;20029;-25
2021/12/16 07:32:23;;;;;;;13.68;7.80;;;1.40;71.20;;;;;;5034980;28;20025;-25
2021/12/16 07:34:49;;;;;;;9.57;4.63;;;1.50;71.00;;;;;;5035463;28;20033;-24
2021/12/16 07:37:15;;;;;;;19.80;12.13;;;1.70;70.90;;;;;;5034655;28;20103;-25
2021/12/16 07:39:43;;;;;;;13.57;6.88;;;1.80;71.10;;;;;;5035137;28;20493;-25
2021/12/16 07:42:14;;;;;;;13.15;5.93;;;1.90;70.20;;;;;;5035025;28;20059;-25
2021/12/16 07:44:41;;;;;;;15.32;8.77;;;2.00;70.00;;;;;;5034868;28;20038;-25
2021/12/16 07:47:10;;;;;;;15.88;8.90;;;2.20;70.00;;;;;;5034605;28;20482;-25
2021/12/16 07:49:40;;;;;;;24.95;13.88;;;2.30;70.10;;;;;;5034892;28;20028;-27
2021/12/16 07:52:10;;;;;;;13.65;7.97;;;2.40;70.70;;;;;;5034840;28;20052;-26
2021/12/16 07:54:36;;;;;;;16.10;8.88;;;2.50;69.80;;;;;;5034353;28;20080;-26
2021/12/16 07:57:04;;;;;;;23.42;12.85;;;2.60;69.90;;;;;;5034729;28;20025;-26
2021/12/16 07:59:32;;;;;;;26.08;13.70;;;2.70;70.10;;;;;;5034315;28;20028;-26
2021/12/16 08:01:59;;;;;;;20.50;12.20;;;2.80;69.70;;;;;;5032756;28;20057;-27
2021/12/16 08:04:29;;;;;;;10.75;6.68;;;2.80;69.60;;;;;;5034101;28;20021;-26
2021/12/16 08:06:59;;;;;;;12.15;7.30;;;2.90;69.30;;;;;;5034497;28;20488;-26
2021/12/16 08:09:26;;;;;;;15.85;8.68;;;3.00;69.30;;;;;;5034498;28;20025;-25
2021/12/16 08:11:52;;;;;;;21.08;12.02;;;3.00;69.60;;;;;;5034979;28;20034;-25
2021/12/16 08:14:20;;;;;;;16.83;9.63;;;3.10;69.10;;;;;;5033829;28;20072;-25
2021/12/16 08:16:46;;;;;;;17.23;9.68;;;3.10;68.40;;;;;;5034090;28;20064;-26
2021/12/16 08:19:12;;;;;;;18.00;10.20;;;3.20;68.40;;;;;;5034595;28;20061;-26
2021/12/16 08:21:40;;;;;;;19.85;9.88;;;3.30;68.90;;;;;;5034500;28;20417;-26
2021/12/16 08:24:09;;;;;;;21.92;13.25;;;3.30;69.40;;;;;;5033808;28;20037;-25
2021/12/16 08:26:37;;;;;;;13.80;7.65;;;3.30;69.90;;;;;;5033686;28;20500;-25
2021/12/16 08:29:04;;;;;;;16.02;9.20;;;3.40;69.50;;;;;;5033990;28;20047;-25
2021/12/16 08:31:30;;;;;;;22.65;12.77;;;3.40;69.10;;;;;;5034062;28;20018;-25
2021/12/16 08:33:57;;;;;;;23.23;12.68;;;3.50;69.30;;;;;;5034381;28;20486;-25
2021/12/16 08:36:24;;;;;;;16.25;10.40;;;3.60;70.00;;;;;;5033625;28;20513;-25
2021/12/16 08:38:50;;;;;;;17.83;9.45;;;3.70;70.20;;;;;;5033890;28;20075;-25
2021/12/16 08:41:23;;;;;;;21.58;12.90;;;3.80;70.00;;;;;;5033813;28;20396;-26
2021/12/16 08:43:49;;;;;;;20.38;11.25;;;3.90;70.20;;;;;;5033718;28;20021;-24
2021/12/16 08:46:21;;;;;;;19.83;12.45;;;4.00;70.10;;;;;;5033464;28;20029;-26
2021/12/16 08:48:48;;;;;;;22.00;13.05;;;4.10;70.40;;;;;;5033502;28;20116;-26
2021/12/16 08:51:18;;;;;;;14.25;7.45;;;4.20;70.30;;;;;;5033427;28;20026;-26
2021/12/16 08:53:44;;;;;;;13.50;8.23;;;4.40;70.30;;;;;;5034062;28;20036;-27
2021/12/16 08:56:12;;;;;;;25.75;15.20;;;4.50;70.50;;;;;;5033330;28;20425;-26
2021/12/16 08:58:40;;;;;;;25.95;14.52;;;4.70;71.20;;;;;;5033479;28;20033;-26
2021/12/16 09:01:13;;;;;;;15.93;9.93;;;4.80;71.20;;;;;;5033304;28;20025;-26
2021/12/16 09:03:39;;;;;;;17.35;10.38;;;4.90;71.00;;;;;;5033218;28;20068;-26
2021/12/16 09:06:05;;;;;;;21.65;13.50;;;5.10;71.10;;;;;;5033221;28;20059;-26
2021/12/16 09:08:31;;;;;;;22.10;12.43;;;5.30;71.10;;;;;;5033326;28;20025;-26
2021/12/16 09:10:58;;;;;;;17.95;11.93;;;5.40;71.30;;;;;;5033623;28;20417;-26
2021/12/16 09:13:25;;;;;;;23.70;13.40;;;5.60;71.20;;;;;;5032850;28;20096;-28
2021/12/16 09:15:58;;;;;;;16.50;10.73;;;5.80;71.30;;;;;;5032709;28;20037;-26
2021/12/16 09:18:27;;;;;;;13.43;8.57;;;5.90;71.30;;;;;;5033120;28;20466;-26
2021/12/16 09:20:56;;;;;;;16.92;10.10;;;6.10;71.50;;;;;;5033375;28;20055;-26
2021/12/16 09:23:22;;;;;;;19.13;11.63;;;6.30;71.40;;;;;;5033290;28;20037;-26
2021/12/16 09:25:49;;;;;;;15.95;8.50;;;6.50;71.40;;;;;;5033336;28;20026;-26
2021/12/16 09:28:17;;;;;;;21.50;14.57;;;6.70;71.50;;;;;;5033472;28;20029;-25
2021/12/16 09:30:44;;;;;;;19.27;11.48;;;6.80;71.50;;;;;;5032814;28;20045;-25
2021/12/16 09:33:16;;;;;;;16.73;10.18;;;7.00;71.50;;;;;;5033274;28;20025;-24
2021/12/16 09:35:46;;;;;;;16.63;10.25;;;7.20;71.60;;;;;;5032761;28;20025;-25
2021/12/16 09:38:15;;;;;;;31.52;18.83;;;7.40;71.80;;;;;;5032966;28;20107;-25
2021/12/16 09:40:49;;;;;;;15.95;9.75;;;7.50;71.80;;;;;;5032911;28;20025;-25
2021/12/16 09:43:17;;;;;;;19.52;13.25;;;7.70;71.60;;;;;;5032859;28;20033;-26
2021/12/16 09:45:43;;;;;;;15.00;10.60;;;7.90;71.70;;;;;;5032725;28;20534;-25
2021/12/16 09:48:10;;;;;;;14.60;9.38;;;8.00;71.70;;;;;;5032811;28;20025;-25
2021/12/16 09:50:36;;;;;;;20.25;12.50;;;8.20;71.70;;;;;;5032605;28;20481;-25
2021/12/16 09:53:03;;;;;;;21.52;14.77;;;8.40;70.80;;;;;;5033092;28;20022;-25
2021/12/16 09:55:32;;;;;;;22.88;14.85;;;8.50;71.70;;;;;;5032779;28;20497;-25
2021/12/16 09:57:58;;;;;;;13.55;8.10;;;8.60;71.50;;;;;;5032747;28;20116;-25
2021/12/16 10:00:28;;;;;;;15.27;10.23;;;8.80;71.70;;;;;;5032731;28;20041;-25
2021/12/16 10:02:57;;;;;;;12.63;8.10;;;9.10;71.00;;;;;;5032694;28;20034;-25
2021/12/16 10:05:24;;;;;;;15.77;9.75;;;9.30;71.50;;;;;;5032941;28;20082;-26
2021/12/16 10:07:51;;;;;;;14.57;9.10;;;9.60;71.50;;;;;;5033279;28;20052;-26
2021/12/16 10:10:23;;;;;;;14.48;8.77;;;9.90;71.20;;;;;;5033262;28;20091;-25
2021/12/16 10:12:51;;;;;;;13.10;7.72;;;10.10;70.80;;;;;;5032733;28;20036;-25
2021/12/16 10:17:59;;;;;;;18.15;11.18;;;10.70;70.00;;;;;;5032700;28;20025;-25
2021/12/16 10:20:32;;;;;;;19.85;12.82;;;11.00;69.40;;;;;;5032734;28;20037;-26
2021/12/16 10:23:02;;;;;;;12.25;7.22;;;11.40;68.80;;;;;;5032500;28;20493;-25
2021/12/16 10:25:40;;;;;;;11.10;7.15;;;11.60;68.30;;;;;;5033711;28;20112;-26
2021/12/16 10:28:09;;;;;;;12.80;8.10;;;11.90;67.90;;;;;;5036167;28;20036;-26
2021/12/16 10:30:44;;;;;;;14.05;8.50;;;12.20;67.40;;;;;;5036062;28;20095;-26
2021/12/16 10:33:27;;;;;;;22.95;14.77;;;12.40;66.90;;;;;;5036290;28;20033;-26
2021/12/16 10:36:18;;;;;;;16.40;10.82;;;12.70;66.40;;;;;;5035947;28;20482;-26
2021/12/16 10:38:52;;;;;;;16.38;10.68;;;13.00;65.80;;;;;;5035733;28;20519;-25
2021/12/16 10:41:32;;;;;;;20.58;14.10;;;13.20;65.20;;;;;;5036541;28;20053;-26
2021/12/16 10:44:10;;;;;;;23.38;16.02;;;13.50;64.60;;;;;;5035742;28;20076;-26
2021/12/16 10:46:42;;;;;;;17.40;13.55;;;13.70;64.00;;;;;;5035879;28;20029;-26
2021/12/16 10:49:13;;;;;;;21.13;15.75;;;13.90;63.40;;;;;;5035777;28;20029;-26
2021/12/16 10:51:43;;;;;;;17.52;12.68;;;14.00;63.00;;;;;;5035717;28;20382;-26
2021/12/16 10:54:17;;;;;;;12.57;9.30;;;14.10;62.40;;;;;;5035934;28;20032;-26
2021/12/16 10:56:54;;;;;;;11.48;8.45;;;14.20;62.20;;;;;;5035947;28;20080;-26
2021/12/16 10:59:51;;;;;;;12.63;8.95;;;14.40;61.90;;;;;;5035813;28;20030;-26
2021/12/16 11:02:34;;;;;;;10.55;7.50;;;14.50;61.60;;;;;;5013662;28;20044;-26
2021/12/16 11:05:16;;;;;;;11.93;8.17;;;14.60;61.40;;;;;;5014296;28;20037;-25
2021/12/16 11:07:45;;;;;;;9.00;6.47;;;14.70;61.30;;;;;;5013570;28;20800;-26
2021/12/16 11:10:31;;;;;;;12.77;7.80;;;14.80;60.90;;;;;;5013526;28;20026;-26
2021/12/16 11:13:09;;;;;;;11.70;8.27;;;14.90;60.20;;;;;;5013970;28;20046;-26
2021/12/16 11:15:47;;;;;;;17.60;12.70;;;15.00;60.40;;;;;;5013265;28;20036;-25
2021/12/16 11:18:20;;;;;;;17.83;12.95;;;15.10;60.20;;;;;;5013268;28;20080;-28
2021/12/16 11:20:49;;;;;;;;;;;15.30;59.70;;;;;;5013697;28;20030;-26
2021/12/16 11:23:34;;;;;;;12.23;8.75;;;15.30;57.10;;;;;;5013788;28;20273;-25
2021/12/16 11:26:03;;;;;;;9.88;6.28;;;15.40;59.40;;;;;;5013372;28;20041;-25
2021/12/16 11:28:33;;;;;;;10.32;7.20;;;15.60;59.30;;;;;;5012945;28;20034;-27
2021/12/16 11:31:14;;;;;;;10.32;7.63;;;15.70;59.20;;;;;;5012950;28;20500;-26
2021/12/16 11:33:55;;;;;;;8.98;6.68;;;15.80;58.60;;;;;;5013672;28;20129;-26
2021/12/16 11:36:24;;;;;;;6.60;4.72;;;15.90;58.50;;;;;;5012539;28;20180;-26
2021/12/16 11:38:59;;;;;;;9.02;6.30;;;16.00;58.40;;;;;;5025385;28;20029;-25
2021/12/16 11:41:27;;;;;;;9.13;6.63;;;16.20;58.20;;;;;;5034817;28;20119;-26
2021/12/16 11:44:04;;;;;;;8.73;5.95;;;16.30;58.00;;;;;;5034909;28;20040;-26
2021/12/16 11:46:39;;;;;;;10.07;7.32;;;16.30;56.60;;;;;;5034524;28;20040;-26
2021/12/16 11:49:13;;;;;;;10.70;7.72;;;16.40;56.60;;;;;;5034992;28;20026;-27
2021/12/16 11:51:50;;;;;;;8.18;4.97;;;16.50;56.90;;;;;;5034617;28;20109;-26
2021/12/16 11:54:21;;;;;;;8.05;5.70;;;16.60;56.70;;;;;;5034482;28;20021;-26
2021/12/16 11:56:54;;;;;;;7.45;5.25;;;16.60;56.50;;;;;;5034546;28;20104;-26
2021/12/16 11:59:35;;;;;;;6.82;5.45;;;16.80;56.10;;;;;;5034893;28;20021;-27
2021/12/16 12:02:03;;;;;;;10.18;6.70;;;16.80;55.90;;;;;;5034420;28;20040;-25
2021/12/16 12:04:35;;;;;;;6.03;4.40;;;16.90;54.20;;;;;;5034099;28;20500;-26
2021/12/16 12:07:15;;;;;;;5.53;4.00;;;17.00;55.40;;;;;;5034325;28;20547;-26
2021/12/16 12:09:53;;;;;;;5.03;3.67;;;17.10;55.00;;;;;;5034668;28;20029;-25
2021/12/16 12:12:40;;;;;;;7.43;4.97;;;17.20;55.10;;;;;;5034063;28;20033;-26
2021/12/16 12:15:11;;;;;;;8.00;4.80;;;17.40;54.70;;;;;;5033992;28;20041;-27
2021/12/16 12:18:05;;;;;;;8.73;5.70;;;17.50;54.30;;;;;;5034441;28;20041;-26
2021/12/16 12:20:33;;;;;;;7.70;4.88;;;17.70;52.10;;;;;;5033080;28;20112;-26
2021/12/16 12:23:00;;;;;;;7.05;4.72;;;17.80;53.10;;;;;;5034269;28;20389;-26
2021/12/16 12:25:28;;;;;;;6.82;4.80;;;17.90;53.30;;;;;;5033889;28;20032;-27
2021/12/16 12:27:54;;;;;;;8.70;5.30;;;17.90;53.20;;;;;;5034119;28;20033;-25
2021/12/16 12:30:20;;;;;;;7.07;4.70;;;17.90;53.10;;;;;;5032336;28;20371;-26
2021/12/16 12:32:49;;;;;;;9.88;6.95;;;17.90;53.10;;;;;;5034052;28;20030;-27
2021/12/16 12:35:21;;;;;;;9.50;6.50;;;18.00;52.90;;;;;;5034083;28;20083;-26
2021/12/16 12:37:51;;;;;;;9.38;6.78;;;18.00;52.90;;;;;;5033610;28;20502;-26
2021/12/16 12:40:20;;;;;;;9.32;6.25;;;18.00;52.60;;;;;;5033815;28;20029;-27
2021/12/16 12:42:48;;;;;;;10.50;7.38;;;17.90;52.60;;;;;;5033552;28;20061;-26
2021/12/16 12:45:19;;;;;;;10.63;7.90;;;17.90;52.60;;;;;;5033742;28;20037;-26
2021/12/16 12:47:49;;;;;;;10.75;7.15;;;17.90;52.50;;;;;;5033583;28;20470;-26
2021/12/16 12:50:21;;;;;;;11.68;8.70;;;17.70;52.30;;;;;;5032737;28;20108;-27
2021/12/16 12:52:51;;;;;;;9.73;6.75;;;17.70;52.00;;;;;;5033726;28;20025;-26
2021/12/16 12:55:31;;;;;;;11.13;6.57;;;17.60;51.70;;;;;;5033887;28;20029;-26
2021/12/16 12:58:10;;;;;;;9.50;6.32;;;17.60;51.60;;;;;;5033757;28;20044;-26
2021/12/16 13:01:01;;;;;;;9.18;6.13;;;17.60;51.20;;;;;;5033095;28;20087;-26
2021/12/16 13:03:36;;;;;;;10.20;7.22;;;17.50;51.70;;;;;;5033880;28;20366;-27
2021/12/16 13:06:09;;;;;;;9.15;6.15;;;17.50;51.60;;;;;;5034588;28;20083;-26
2021/12/16 13:08:39;;;;;;;10.43;6.80;;;17.50;51.30;;;;;;5033119;28;20021;-26
2021/12/16 13:11:15;;;;;;;10.48;7.30;;;17.50;51.30;;;;;;5033520;28;20030;-26
2021/12/16 13:14:19;;;;;;;11.25;8.10;;;17.50;51.20;;;;;;5033490;28;20040;-26
2021/12/16 13:26:01;;;;;;;13.88;8.30;;;17.50;50.90;;;;;;5020962;28;20057;-26
2021/12/16 13:31:33;;;;;;;14.52;10.48;;;17.50;50.70;;;;;;5033336;28;20052;-27
2021/12/16 13:34:01;;;;;;;11.55;8.18;;;17.50;50.70;;;;;;5033358;28;20139;-26
2021/12/16 13:36:44;;;;;;;10.38;7.15;;;17.40;50.40;;;;;;5032491;28;20057;-26
2021/12/16 13:39:20;;;;;;;9.93;6.50;;;17.40;51.00;;;;;;5033348;28;20041;-26
2021/12/16 13:42:15;;;;;;;12.43;9.13;;;17.40;51.10;;;;;;5032946;28;20025;-26
2021/12/16 13:45:02;;;;;;;12.45;8.48;;;17.50;50.60;;;;;;5031875;28;20046;-27
2021/12/16 14:05:27;;;;;;;8.57;4.78;;;17.40;50.40;;;;;;5037450;28;20037;-27
2021/12/16 14:07:58;;;;;;;8.63;5.60;;;17.40;50.60;;;;;;5036598;28;20032;-26
2021/12/16 14:10:52;;;;;;;8.85;5.40;;;17.40;50.70;;;;;;5036554;28;20047;-27
2021/12/16 14:17:07;;;;;;;7.90;5.43;;;17.50;50.50;;;;;;5036161;28;20057;-27
2021/12/16 14:43:54;;;;;;;7.18;4.78;;;17.00;50.80;;;;;;5036396;28;20079;-27
2021/12/16 14:46:28;;;;;;;9.13;5.53;;;16.90;50.80;;;;;;5035965;28;20068;-27
2021/12/16 14:48:55;;;;;;;7.63;5.22;;;16.90;50.80;;;;;;5035778;28;20079;-26
2021/12/16 14:51:21;;;;;;;7.40;4.90;;;16.80;51.00;;;;;;5035728;28;20030;-26
2021/12/16 14:53:51;;;;;;;8.80;5.57;;;16.70;51.10;;;;;;5035966;28;20021;-25
2021/12/16 14:56:24;;;;;;;8.05;4.95;;;16.60;51.20;;;;;;5035764;28;20030;-27
2021/12/16 14:59:03;;;;;;;9.65;6.18;;;16.50;51.20;;;;;;5035660;28;20033;-26
2021/12/16 15:01:40;;;;;;;8.55;5.40;;;16.40;51.30;;;;;;5035893;28;20021;-26
2021/12/16 15:04:09;;;;;;;9.90;6.45;;;16.30;51.40;;;;;;5036298;28;20030;-26
2021/12/16 15:06:47;;;;;;;8.95;5.90;;;16.20;51.60;;;;;;5035263;28;20489;-27
2021/12/16 15:09:30;;;;;;;9.65;5.78;;;16.00;51.70;;;;;;5035720;28;20025;-26
2021/12/16 15:12:24;;;;;;;8.93;5.10;;;15.90;51.80;;;;;;5034293;28;20100;-26
2021/12/16 15:31:39;;;;;;;14.55;7.32;;;15.50;52.30;;;;;;5035311;28;20028;-26
2021/12/16 15:42:53;;;;;;;14.10;7.15;;;13.70;54.00;;;;;;5035274;28;20038;-26
2021/12/16 15:45:48;;;;;;;13.45;7.20;;;13.50;54.30;;;;;;5034689;28;20037;-26
2021/12/16 15:48:22;;;;;;;12.73;5.88;;;13.30;54.20;;;;;;5012675;28;20034;-26
2021/12/16 15:50:51;;;;;;;13.10;6.72;;;13.10;54.70;;;;;;5013024;28;20121;-25
2021/12/16 15:53:20;;;;;;;9.02;5.68;;;12.90;54.70;;;;;;5012867;28;20034;-25
2021/12/16 15:55:56;;;;;;;9.43;5.47;;;12.80;55.00;;;;;;5013031;28;20132;-25
2021/12/16 15:58:29;;;;;;;14.50;8.07;;;12.60;55.10;;;;;;5012456;28;20113;-26
2021/12/16 16:00:59;;;;;;;12.90;7.45;;;12.50;55.30;;;;;;5012584;28;20026;-26
2021/12/16 16:03:27;;;;;;;13.82;7.35;;;12.30;55.40;;;;;;5012426;28;20038;-26
2021/12/16 16:05:57;;;;;;;15.25;8.93;;;12.20;55.50;;;;;;5012591;28;20490;-25
2021/12/16 16:08:27;;;;;;;13.43;7.78;;;12.00;55.70;;;;;;5012274;28;20173;-27
2021/12/16 16:10:59;;;;;;;13.77;8.27;;;11.90;55.90;;;;;;5012378;28;20033;-26
2021/12/16 16:13:29;;;;;;;11.73;6.43;;;11.70;56.00;;;;;;5012661;28;20045;-26
2021/12/16 16:16:00;;;;;;;16.55;8.77;;;11.50;56.10;;;;;;4980790;28;20108;-26
2021/12/16 16:21:19;;;;;;;13.45;6.28;;;11.30;56.40;;;;;;5012304;28;20506;-26
2021/12/16 16:23:51;;;;;;;11.63;6.32;;;11.20;56.50;;;;;;5011914;28;20045;-27
2021/12/16 16:26:18;;;;;;;13.60;7.40;;;11.00;56.60;;;;;;5033112;28;20025;-26
2021/12/16 16:28:49;;;;;;;13.80;7.50;;;10.90;56.70;;;;;;5033900;28;20113;-26
2021/12/16 16:31:25;;;;;;;16.88;8.23;;;10.80;56.80;;;;;;5033783;28;20065;-26
2021/12/16 16:33:52;;;;;;;12.43;7.13;;;10.70;56.90;;;;;;5033860;28;20044;-26
2021/12/16 16:36:22;;;;;;;7.70;5.05;;;10.50;57.00;;;;;;5033248;28;20417;-26
2021/12/16 16:39:03;;;;;;;9.48;5.75;;;10.40;57.10;;;;;;5033759;28;20021;-27
2021/12/16 16:41:32;;;;;;;12.32;7.28;;;10.30;57.20;;;;;;5033713;28;20116;-26
2021/12/16 16:44:14;;;;;;;12.48;7.45;;;10.20;57.30;;;;;;5033964;28;20090;-27
2021/12/16 16:47:07;;;;;;;15.88;9.63;;;10.10;57.40;;;;;;5033653;28;20485;-26
2021/12/16 16:49:57;;;;;;;14.13;7.82;;;9.90;57.50;;;;;;5033829;28;20068;-26
2021/12/16 16:52:40;;;;;;;17.13;9.60;;;9.90;57.70;;;;;;5033332;28;20029;-26
2021/12/16 16:55:15;;;;;;;16.97;9.00;;;9.70;57.70;;;;;;5034321;28;20033;-25
2021/12/16 16:57:52;;;;;;;13.70;8.65;;;9.60;57.80;;;;;;5033467;28;20029;-26
2021/12/16 17:00:32;;;;;;;13.95;8.38;;;9.50;57.90;;;;;;5033269;28;20021;-26
2021/12/16 17:03:05;;;;;;;12.70;7.50;;;9.40;58.00;;;;;;5033631;28;20057;-25
2021/12/16 17:05:57;;;;;;;17.52;9.43;;;9.30;58.20;;;;;;5032397;28;20160;-25
2021/12/16 17:08:32;;;;;;;16.27;9.15;;;9.20;58.30;;;;;;5033367;28;20100;-25
2021/12/16 17:10:59;;;;;;;17.48;9.88;;;9.00;58.30;;;;;;5033547;28;20033;-26
2021/12/16 17:13:41;;;;;;;17.35;8.18;;;8.90;58.40;;;;;;5033432;28;20500;-26
2021/12/16 17:18:57;;;;;;;18.30;9.75;;;8.80;58.60;;;;;;5033379;28;20068;-26
2021/12/16 17:21:23;;;;;;;18.08;9.93;;;8.60;58.70;;;;;;5033245;28;20037;-26
2021/12/16 17:23:53;;;;;;;14.13;8.68;;;8.50;58.70;;;;;;5033289;28;20037;-25